sensor_id;sensor_type;location;lat;lon;timestamp;P1;durP1;ratioP1;P2;durP2;ratioP2
36061;SDS011;22123;52.412;20.970;2023-07-13T00:00:29;3.33;;;2.05;;
36061;SDS011;22123;52.412;20.970;2023-07-13T00:05:23;3.22;;;1.40;;
36061;SDS011;22123;52.412;20.970;2023-07-13T00:07:49;5.13;;;1.85;;
36061;SDS011;22123;52.412;20.970;2023-07-13T00:10:17;2.72;;;1.95;;
36061;SDS011;22123;52.412;20.970;2023-07-13T00:12:44;2.65;;;1.95;;
36061;SDS011;22123;52.412;20.970;2023-07-13T00:15:12;2.67;;;2.33;;
36061;SDS011;22123;52.412;20.970;2023-07-13T00:17:40;3.10;;;1.83;;
36061;SDS011;22123;52.412;20.970;2023-07-13T00:22:32;2.30;;;2.10;;
36061;SDS011;22123;52.412;20.970;2023-07-13T00:24:58;2.28;;;1.63;;
36061;SDS011;22123;52.412;20.970;2023-07-13T00:29:49;2.05;;;1.63;;
36061;SDS011;22123;52.412;20.970;2023-07-13T00:34:41;2.50;;;2.20;;
36061;SDS011;22123;52.412;20.970;2023-07-13T00:39:33;1.98;;;1.65;;
36061;SDS011;22123;52.412;20.970;2023-07-13T00:42:00;2.92;;;2.00;;
36061;SDS011;22123;52.412;20.970;2023-07-13T00:44:26;2.70;;;2.25;;
36061;SDS011;22123;52.412;20.970;2023-07-13T00:46:52;3.08;;;1.98;;
36061;SDS011;22123;52.412;20.970;2023-07-13T00:51:48;2.97;;;1.67;;
36061;SDS011;22123;52.412;20.970;2023-07-13T00:54:21;1.40;;;1.33;;
36061;SDS011;22123;52.412;20.970;2023-07-13T00:56:50;4.07;;;1.98;;
36061;SDS011;22123;52.412;20.970;2023-07-13T00:59:18;4.43;;;1.75;;
36061;SDS011;22123;52.412;20.970;2023-07-13T01:01:46;4.22;;;2.33;;
36061;SDS011;22123;52.412;20.970;2023-07-13T01:04:12;1.85;;;1.30;;
36061;SDS011;22123;52.412;20.970;2023-07-13T01:09:05;4.13;;;1.77;;
36061;SDS011;22123;52.412;20.970;2023-07-13T01:11:32;2.90;;;1.85;;
36061;SDS011;22123;52.412;20.970;2023-07-13T01:13:58;3.40;;;2.63;;
36061;SDS011;22123;52.412;20.970;2023-07-13T01:18:51;2.13;;;1.65;;
36061;SDS011;22123;52.412;20.970;2023-07-13T01:23:43;3.17;;;2.25;;
36061;SDS011;22123;52.412;20.970;2023-07-13T01:28:34;2.53;;;1.52;;
36061;SDS011;22123;52.412;20.970;2023-07-13T01:33:26;1.55;;;1.17;;
36061;SDS011;22123;52.412;20.970;2023-07-13T01:38:18;3.83;;;2.08;;
36061;SDS011;22123;52.412;20.970;2023-07-13T01:40:46;3.70;;;1.60;;
36061;SDS011;22123;52.412;20.970;2023-07-13T01:43:12;5.03;;;2.83;;
36061;SDS011;22123;52.412;20.970;2023-07-13T01:45:39;4.95;;;1.98;;
36061;SDS011;22123;52.412;20.970;2023-07-13T01:50:30;2.97;;;1.80;;
36061;SDS011;22123;52.412;20.970;2023-07-13T01:55:22;2.35;;;1.75;;
36061;SDS011;22123;52.412;20.970;2023-07-13T02:00:14;2.72;;;2.22;;
36061;SDS011;22123;52.412;20.970;2023-07-13T02:02:40;3.03;;;1.98;;
36061;SDS011;22123;52.412;20.970;2023-07-13T02:05:06;2.53;;;1.98;;
36061;SDS011;22123;52.412;20.970;2023-07-13T02:07:32;3.67;;;1.70;;
36061;SDS011;22123;52.412;20.970;2023-07-13T02:12:24;2.30;;;1.70;;
36061;SDS011;22123;52.412;20.970;2023-07-13T02:17:15;5.03;;;2.67;;
36061;SDS011;22123;52.412;20.970;2023-07-13T02:22:07;3.95;;;1.73;;
36061;SDS011;22123;52.412;20.970;2023-07-13T02:24:33;2.15;;;1.75;;
36061;SDS011;22123;52.412;20.970;2023-07-13T02:29:25;4.72;;;2.05;;
36061;SDS011;22123;52.412;20.970;2023-07-13T02:34:16;1.83;;;1.73;;
36061;SDS011;22123;52.412;20.970;2023-07-13T02:39:08;2.97;;;1.50;;
36061;SDS011;22123;52.412;20.970;2023-07-13T02:41:34;2.75;;;2.00;;
36061;SDS011;22123;52.412;20.970;2023-07-13T02:46:26;2.08;;;1.33;;
36061;SDS011;22123;52.412;20.970;2023-07-13T02:51:17;1.80;;;1.67;;
36061;SDS011;22123;52.412;20.970;2023-07-13T02:56:09;2.58;;;1.60;;
36061;SDS011;22123;52.412;20.970;2023-07-13T03:01:05;2.40;;;1.75;;
36061;SDS011;22123;52.412;20.970;2023-07-13T03:03:32;1.40;;;1.30;;
36061;SDS011;22123;52.412;20.970;2023-07-13T03:08:27;3.58;;;2.38;;
36061;SDS011;22123;52.412;20.970;2023-07-13T03:13:26;2.92;;;1.52;;
36061;SDS011;22123;52.412;20.970;2023-07-13T03:18:17;4.25;;;2.15;;
36061;SDS011;22123;52.412;20.970;2023-07-13T03:23:09;2.25;;;1.25;;
36061;SDS011;22123;52.412;20.970;2023-07-13T03:28:00;2.70;;;1.48;;
36061;SDS011;22123;52.412;20.970;2023-07-13T03:32:52;4.88;;;2.08;;
36061;SDS011;22123;52.412;20.970;2023-07-13T03:37:43;3.50;;;2.50;;
36061;SDS011;22123;52.412;20.970;2023-07-13T03:42:35;3.58;;;2.00;;
36061;SDS011;22123;52.412;20.970;2023-07-13T03:47:27;2.75;;;2.33;;
36061;SDS011;22123;52.412;20.970;2023-07-13T03:49:53;6.78;;;2.33;;
36061;SDS011;22123;52.412;20.970;2023-07-13T03:54:44;2.63;;;1.70;;
36061;SDS011;22123;52.412;20.970;2023-07-13T03:59:36;3.35;;;1.88;;
36061;SDS011;22123;52.412;20.970;2023-07-13T04:04:27;4.10;;;1.88;;
36061;SDS011;22123;52.412;20.970;2023-07-13T04:06:53;4.45;;;2.85;;
36061;SDS011;22123;52.412;20.970;2023-07-13T04:11:45;3.33;;;1.88;;
36061;SDS011;22123;52.412;20.970;2023-07-13T04:16:36;2.88;;;1.70;;
36061;SDS011;22123;52.412;20.970;2023-07-13T04:21:28;2.67;;;1.73;;
36061;SDS011;22123;52.412;20.970;2023-07-13T04:23:56;5.20;;;2.35;;
36061;SDS011;22123;52.412;20.970;2023-07-13T04:26:22;5.28;;;2.30;;
36061;SDS011;22123;52.412;20.970;2023-07-13T04:28:49;4.40;;;2.83;;
36061;SDS011;22123;52.412;20.970;2023-07-13T04:31:15;4.15;;;2.33;;
36061;SDS011;22123;52.412;20.970;2023-07-13T04:33:41;3.17;;;1.85;;
36061;SDS011;22123;52.412;20.970;2023-07-13T04:38:34;2.58;;;1.42;;
36061;SDS011;22123;52.412;20.970;2023-07-13T04:43:28;3.40;;;2.22;;
36061;SDS011;22123;52.412;20.970;2023-07-13T04:45:54;3.70;;;2.78;;
36061;SDS011;22123;52.412;20.970;2023-07-13T04:48:20;5.25;;;1.98;;
36061;SDS011;22123;52.412;20.970;2023-07-13T04:50:46;6.60;;;2.00;;
36061;SDS011;22123;52.412;20.970;2023-07-13T04:53:13;3.63;;;2.33;;
36061;SDS011;22123;52.412;20.970;2023-07-13T04:55:39;6.60;;;3.60;;
36061;SDS011;22123;52.412;20.970;2023-07-13T05:00:31;4.18;;;2.08;;
36061;SDS011;22123;52.412;20.970;2023-07-13T05:05:23;3.67;;;2.28;;
36061;SDS011;22123;52.412;20.970;2023-07-13T05:07:51;3.97;;;2.47;;
36061;SDS011;22123;52.412;20.970;2023-07-13T05:10:17;4.10;;;2.65;;
36061;SDS011;22123;52.412;20.970;2023-07-13T05:12:43;3.60;;;2.45;;
36061;SDS011;22123;52.412;20.970;2023-07-13T05:17:35;5.80;;;3.17;;
36061;SDS011;22123;52.412;20.970;2023-07-13T05:20:01;4.30;;;3.05;;
36061;SDS011;22123;52.412;20.970;2023-07-13T05:22:27;6.00;;;2.88;;
36061;SDS011;22123;52.412;20.970;2023-07-13T05:24:53;4.07;;;2.30;;
36061;SDS011;22123;52.412;20.970;2023-07-13T05:27:19;5.03;;;2.65;;
36061;SDS011;22123;52.412;20.970;2023-07-13T05:29:45;3.63;;;2.28;;
36061;SDS011;22123;52.412;20.970;2023-07-13T05:32:11;5.57;;;2.97;;
36061;SDS011;22123;52.412;20.970;2023-07-13T05:34:37;3.38;;;2.03;;
36061;SDS011;22123;52.412;20.970;2023-07-13T05:37:03;4.57;;;3.42;;
36061;SDS011;22123;52.412;20.970;2023-07-13T05:39:29;3.85;;;3.10;;
36061;SDS011;22123;52.412;20.970;2023-07-13T05:41:55;6.45;;;3.13;;
36061;SDS011;22123;52.412;20.970;2023-07-13T05:44:21;4.93;;;3.75;;
36061;SDS011;22123;52.412;20.970;2023-07-13T05:46:46;4.80;;;3.42;;
36061;SDS011;22123;52.412;20.970;2023-07-13T05:51:38;5.88;;;3.30;;
36061;SDS011;22123;52.412;20.970;2023-07-13T05:54:04;8.55;;;3.33;;
36061;SDS011;22123;52.412;20.970;2023-07-13T05:56:30;4.82;;;2.88;;
36061;SDS011;22123;52.412;20.970;2023-07-13T05:58:56;4.90;;;3.40;;
36061;SDS011;22123;52.412;20.970;2023-07-13T06:01:22;6.75;;;4.18;;
36061;SDS011;22123;52.412;20.970;2023-07-13T06:03:48;3.95;;;3.28;;
36061;SDS011;22123;52.412;20.970;2023-07-13T06:06:14;6.15;;;3.60;;
36061;SDS011;22123;52.412;20.970;2023-07-13T06:08:40;4.82;;;3.33;;
36061;SDS011;22123;52.412;20.970;2023-07-13T06:11:12;6.75;;;3.55;;
36061;SDS011;22123;52.412;20.970;2023-07-13T06:13:41;5.03;;;2.90;;
36061;SDS011;22123;52.412;20.970;2023-07-13T06:16:07;6.43;;;3.85;;
36061;SDS011;22123;52.412;20.970;2023-07-13T06:18:33;4.25;;;3.13;;
36061;SDS011;22123;52.412;20.970;2023-07-13T06:21:05;3.95;;;3.03;;
36061;SDS011;22123;52.412;20.970;2023-07-13T06:23:32;7.10;;;3.08;;
36061;SDS011;22123;52.412;20.970;2023-07-13T06:25:57;4.72;;;3.20;;
36061;SDS011;22123;52.412;20.970;2023-07-13T06:28:23;5.93;;;2.60;;
36061;SDS011;22123;52.412;20.970;2023-07-13T06:30:49;6.10;;;3.42;;
36061;SDS011;22123;52.412;20.970;2023-07-13T06:33:15;3.47;;;2.97;;
36061;SDS011;22123;52.412;20.970;2023-07-13T06:35:41;6.30;;;3.20;;
36061;SDS011;22123;52.412;20.970;2023-07-13T06:38:08;5.43;;;3.63;;
36061;SDS011;22123;52.412;20.970;2023-07-13T06:40:33;4.10;;;2.88;;
36061;SDS011;22123;52.412;20.970;2023-07-13T06:42:59;6.68;;;3.20;;
36061;SDS011;22123;52.412;20.970;2023-07-13T06:45:25;4.28;;;2.95;;
36061;SDS011;22123;52.412;20.970;2023-07-13T06:47:51;5.93;;;3.00;;
36061;SDS011;22123;52.412;20.970;2023-07-13T06:50:17;4.53;;;2.53;;
36061;SDS011;22123;52.412;20.970;2023-07-13T06:52:43;2.53;;;2.05;;
36061;SDS011;22123;52.412;20.970;2023-07-13T06:55:09;2.95;;;2.50;;
36061;SDS011;22123;52.412;20.970;2023-07-13T06:57:35;3.95;;;1.92;;
36061;SDS011;22123;52.412;20.970;2023-07-13T07:00:00;2.10;;;1.70;;
36061;SDS011;22123;52.412;20.970;2023-07-13T07:02:26;3.70;;;2.10;;
36061;SDS011;22123;52.412;20.970;2023-07-13T07:04:52;3.03;;;1.92;;
36061;SDS011;22123;52.412;20.970;2023-07-13T07:07:18;1.77;;;1.63;;
36061;SDS011;22123;52.412;20.970;2023-07-13T07:09:44;2.28;;;1.67;;
36061;SDS011;22123;52.412;20.970;2023-07-13T07:12:10;1.98;;;1.50;;
36061;SDS011;22123;52.412;20.970;2023-07-13T07:14:36;2.45;;;1.83;;
36061;SDS011;22123;52.412;20.970;2023-07-13T07:17:02;1.40;;;1.30;;
36061;SDS011;22123;52.412;20.970;2023-07-13T07:19:29;1.35;;;1.25;;
36061;SDS011;22123;52.412;20.970;2023-07-13T07:21:55;2.55;;;1.20;;
36061;SDS011;22123;52.412;20.970;2023-07-13T07:24:21;0.95;;;0.93;;
36061;SDS011;22123;52.412;20.970;2023-07-13T07:26:47;1.38;;;1.23;;
36061;SDS011;22123;52.412;20.970;2023-07-13T07:29:13;1.20;;;1.10;;
36061;SDS011;22123;52.412;20.970;2023-07-13T07:31:39;2.28;;;1.63;;
36061;SDS011;22123;52.412;20.970;2023-07-13T07:34:05;1.27;;;1.13;;
36061;SDS011;22123;52.412;20.970;2023-07-13T07:36:30;1.58;;;1.13;;
36061;SDS011;22123;52.412;20.970;2023-07-13T07:38:56;2.95;;;1.67;;
36061;SDS011;22123;52.412;20.970;2023-07-13T07:41:22;2.88;;;1.45;;
36061;SDS011;22123;52.412;20.970;2023-07-13T07:43:48;2.25;;;1.13;;
36061;SDS011;22123;52.412;20.970;2023-07-13T07:46:14;3.22;;;1.40;;
36061;SDS011;22123;52.412;20.970;2023-07-13T07:48:40;2.78;;;1.75;;
36061;SDS011;22123;52.412;20.970;2023-07-13T07:51:06;1.65;;;1.38;;
36061;SDS011;22123;52.412;20.970;2023-07-13T07:53:32;2.85;;;1.25;;
36061;SDS011;22123;52.412;20.970;2023-07-13T07:55:57;1.27;;;1.13;;
36061;SDS011;22123;52.412;20.970;2023-07-13T07:58:23;2.60;;;2.40;;
36061;SDS011;22123;52.412;20.970;2023-07-13T08:00:49;1.98;;;1.42;;
36061;SDS011;22123;52.412;20.970;2023-07-13T08:03:15;1.60;;;1.50;;
36061;SDS011;22123;52.412;20.970;2023-07-13T08:05:41;1.73;;;1.13;;
36061;SDS011;22123;52.412;20.970;2023-07-13T08:08:07;2.88;;;1.60;;
36061;SDS011;22123;52.412;20.970;2023-07-13T08:10:35;2.97;;;1.63;;
36061;SDS011;22123;52.412;20.970;2023-07-13T08:13:01;3.45;;;1.60;;
36061;SDS011;22123;52.412;20.970;2023-07-13T08:15:27;2.25;;;2.00;;
36061;SDS011;22123;52.412;20.970;2023-07-13T08:17:53;2.30;;;1.88;;
36061;SDS011;22123;52.412;20.970;2023-07-13T08:20:19;2.40;;;2.20;;
36061;SDS011;22123;52.412;20.970;2023-07-13T08:22:45;2.85;;;2.25;;
36061;SDS011;22123;52.412;20.970;2023-07-13T08:25:10;2.13;;;1.90;;
36061;SDS011;22123;52.412;20.970;2023-07-13T08:27:36;2.55;;;2.10;;
36061;SDS011;22123;52.412;20.970;2023-07-13T08:30:02;2.20;;;2.00;;
36061;SDS011;22123;52.412;20.970;2023-07-13T08:32:28;2.63;;;1.60;;
36061;SDS011;22123;52.412;20.970;2023-07-13T08:34:54;2.13;;;1.77;;
36061;SDS011;22123;52.412;20.970;2023-07-13T08:37:20;3.55;;;2.30;;
36061;SDS011;22123;52.412;20.970;2023-07-13T08:39:46;1.85;;;1.73;;
36061;SDS011;22123;52.412;20.970;2023-07-13T08:45:28;3.58;;;2.35;;
36061;SDS011;22123;52.412;20.970;2023-07-13T08:47:50;2.08;;;1.70;;
36061;SDS011;22123;52.412;20.970;2023-07-13T08:50:25;1.90;;;1.40;;
36061;SDS011;22123;52.412;20.970;2023-07-13T08:52:55;1.20;;;1.10;;
36061;SDS011;22123;52.412;20.970;2023-07-13T08:55:27;1.23;;;1.10;;
36061;SDS011;22123;52.412;20.970;2023-07-13T08:58:01;1.20;;;0.90;;
36061;SDS011;22123;52.412;20.970;2023-07-13T09:00:52;1.08;;;0.80;;
36061;SDS011;22123;52.412;20.970;2023-07-13T09:03:26;0.80;;;0.80;;
36061;SDS011;22123;52.412;20.970;2023-07-13T09:06:01;0.50;;;0.50;;
36061;SDS011;22123;52.412;20.970;2023-07-13T09:16:39;0.77;;;0.57;;
36061;SDS011;22123;52.412;20.970;2023-07-13T09:19:07;0.63;;;0.60;;
36061;SDS011;22123;52.412;20.970;2023-07-13T09:21:40;0.77;;;0.57;;
36061;SDS011;22123;52.412;20.970;2023-07-13T09:24:22;2.30;;;1.20;;
36061;SDS011;22123;52.412;20.970;2023-07-13T09:26:58;0.88;;;0.55;;
36061;SDS011;22123;52.412;20.970;2023-07-13T09:29:28;2.35;;;0.65;;
36061;SDS011;22123;52.412;20.970;2023-07-13T09:32:00;3.40;;;0.88;;
36061;SDS011;22123;52.412;20.970;2023-07-13T09:34:27;0.40;;;0.40;;
36061;SDS011;22123;52.412;20.970;2023-07-13T09:36:54;1.17;;;0.63;;
36061;SDS011;22123;52.412;20.970;2023-07-13T09:39:33;1.23;;;0.65;;
36061;SDS011;22123;52.412;20.970;2023-07-13T09:47:19;0.43;;;0.43;;
36061;SDS011;22123;52.412;20.970;2023-07-13T09:49:57;1.75;;;0.85;;
36061;SDS011;22123;52.412;20.970;2023-07-13T09:52:27;2.72;;;1.17;;
36061;SDS011;22123;52.412;20.970;2023-07-13T09:57:55;1.98;;;1.13;;
36061;SDS011;22123;52.412;20.970;2023-07-13T10:00:29;1.88;;;0.85;;
36061;SDS011;22123;52.412;20.970;2023-07-13T10:02:59;0.95;;;0.70;;
36061;SDS011;22123;52.412;20.970;2023-07-13T10:05:27;3.17;;;1.38;;
36061;SDS011;22123;52.412;20.970;2023-07-13T10:07:53;1.85;;;1.02;;
36061;SDS011;22123;52.412;20.970;2023-07-13T10:10:22;2.50;;;0.90;;
36061;SDS011;22123;52.412;20.970;2023-07-13T10:12:50;2.65;;;1.58;;
36061;SDS011;22123;52.412;20.970;2023-07-13T10:15:18;0.88;;;0.55;;
36061;SDS011;22123;52.412;20.970;2023-07-13T10:17:49;1.27;;;0.93;;
36061;SDS011;22123;52.412;20.970;2023-07-13T10:20:16;0.85;;;0.65;;
36061;SDS011;22123;52.412;20.970;2023-07-13T10:25:13;1.02;;;0.90;;
36061;SDS011;22123;52.412;20.970;2023-07-13T10:27:41;1.58;;;1.10;;
36061;SDS011;22123;52.412;20.970;2023-07-13T10:32:43;2.17;;;1.00;;
36061;SDS011;22123;52.412;20.970;2023-07-13T10:35:13;1.20;;;0.95;;
36061;SDS011;22123;52.412;20.970;2023-07-13T10:40:14;1.27;;;1.00;;
36061;SDS011;22123;52.412;20.970;2023-07-13T10:42:44;0.65;;;0.60;;
36061;SDS011;22123;52.412;20.970;2023-07-13T10:45:14;1.77;;;1.30;;
36061;SDS011;22123;52.412;20.970;2023-07-13T10:47:42;2.97;;;1.75;;
36061;SDS011;22123;52.412;20.970;2023-07-13T10:50:13;1.70;;;0.70;;
36061;SDS011;22123;52.412;20.970;2023-07-13T10:52:45;1.30;;;0.88;;
36061;SDS011;22123;52.412;20.970;2023-07-13T10:58:42;0.52;;;0.52;;
36061;SDS011;22123;52.412;20.970;2023-07-13T11:01:15;0.57;;;0.57;;
36061;SDS011;22123;52.412;20.970;2023-07-13T11:04:16;1.40;;;1.13;;
36061;SDS011;22123;52.412;20.970;2023-07-13T11:06:39;1.73;;;0.98;;
36061;SDS011;22123;52.412;20.970;2023-07-13T11:11:44;1.20;;;1.10;;
36061;SDS011;22123;52.412;20.970;2023-07-13T11:14:28;2.38;;;1.20;;
36061;SDS011;22123;52.412;20.970;2023-07-13T11:16:56;2.15;;;1.10;;
36061;SDS011;22123;52.412;20.970;2023-07-13T11:24:56;2.30;;;1.13;;
36061;SDS011;22123;52.412;20.970;2023-07-13T11:27:32;1.92;;;1.50;;
36061;SDS011;22123;52.412;20.970;2023-07-13T11:38:24;1.45;;;0.95;;
36061;SDS011;22123;52.412;20.970;2023-07-13T11:40:58;1.42;;;1.10;;
36061;SDS011;22123;52.412;20.970;2023-07-13T11:43:28;0.85;;;0.85;;
36061;SDS011;22123;52.412;20.970;2023-07-13T11:45:55;1.63;;;0.90;;
36061;SDS011;22123;52.412;20.970;2023-07-13T11:48:23;1.58;;;1.15;;
36061;SDS011;22123;52.412;20.970;2023-07-13T11:50:58;1.17;;;0.98;;
36061;SDS011;22123;52.412;20.970;2023-07-13T11:53:29;1.77;;;1.17;;
36061;SDS011;22123;52.412;20.970;2023-07-13T11:56:05;1.45;;;0.90;;
36061;SDS011;22123;52.412;20.970;2023-07-13T11:58:31;1.98;;;0.80;;
36061;SDS011;22123;52.412;20.970;2023-07-13T12:00:59;0.98;;;0.80;;
36061;SDS011;22123;52.412;20.970;2023-07-13T12:03:27;1.17;;;0.98;;
36061;SDS011;22123;52.412;20.970;2023-07-13T12:06:01;1.70;;;1.17;;
36061;SDS011;22123;52.412;20.970;2023-07-13T12:08:29;0.63;;;0.63;;
36061;SDS011;22123;52.412;20.970;2023-07-13T12:13:35;1.10;;;1.00;;
36061;SDS011;22123;52.412;20.970;2023-07-13T12:16:07;1.08;;;1.00;;
36061;SDS011;22123;52.412;20.970;2023-07-13T12:18:40;2.80;;;1.65;;
36061;SDS011;22123;52.412;20.970;2023-07-13T12:21:09;3.45;;;2.33;;
36061;SDS011;22123;52.412;20.970;2023-07-13T12:23:38;1.33;;;1.20;;
36061;SDS011;22123;52.412;20.970;2023-07-13T12:26:05;1.35;;;1.25;;
36061;SDS011;22123;52.412;20.970;2023-07-13T12:31:03;1.35;;;1.00;;
36061;SDS011;22123;52.412;20.970;2023-07-13T12:33:32;1.90;;;1.73;;
36061;SDS011;22123;52.412;20.970;2023-07-13T12:36:02;2.42;;;1.33;;
36061;SDS011;22123;52.412;20.970;2023-07-13T12:38:31;2.03;;;1.05;;
36061;SDS011;22123;52.412;20.970;2023-07-13T12:40:58;1.50;;;1.00;;
36061;SDS011;22123;52.412;20.970;2023-07-13T12:43:26;2.50;;;1.85;;
36061;SDS011;22123;52.412;20.970;2023-07-13T12:45:59;1.85;;;1.30;;
36061;SDS011;22123;52.412;20.970;2023-07-13T12:48:29;1.60;;;1.42;;
36061;SDS011;22123;52.412;20.970;2023-07-13T12:50:55;1.30;;;0.93;;
36061;SDS011;22123;52.412;20.970;2023-07-13T12:53:29;3.35;;;2.22;;
36061;SDS011;22123;52.412;20.970;2023-07-13T12:55:56;1.23;;;0.98;;
36061;SDS011;22123;52.412;20.970;2023-07-13T12:58:29;1.15;;;0.98;;
36061;SDS011;22123;52.412;20.970;2023-07-13T13:00:59;0.95;;;0.65;;
36061;SDS011;22123;52.412;20.970;2023-07-13T13:03:30;3.10;;;0.90;;
36061;SDS011;22123;52.412;20.970;2023-07-13T13:06:02;2.08;;;1.52;;
36061;SDS011;22123;52.412;20.970;2023-07-13T13:08:31;2.97;;;1.42;;
36061;SDS011;22123;52.412;20.970;2023-07-13T13:10:59;2.05;;;1.08;;
36061;SDS011;22123;52.412;20.970;2023-07-13T13:15:50;1.02;;;0.85;;
36061;SDS011;22123;52.412;20.970;2023-07-13T13:18:23;3.25;;;1.65;;
36061;SDS011;22123;52.412;20.970;2023-07-13T13:20:49;1.95;;;1.23;;
36061;SDS011;22123;52.412;20.970;2023-07-13T13:23:17;2.35;;;1.27;;
36061;SDS011;22123;52.412;20.970;2023-07-13T13:25:45;2.88;;;1.42;;
36061;SDS011;22123;52.412;20.970;2023-07-13T13:28:16;1.67;;;1.00;;
36061;SDS011;22123;52.412;20.970;2023-07-13T13:30:45;2.63;;;1.58;;
36061;SDS011;22123;52.412;20.970;2023-07-13T13:33:12;4.18;;;2.00;;
36061;SDS011;22123;52.412;20.970;2023-07-13T13:35:40;2.00;;;1.45;;
36061;SDS011;22123;52.412;20.970;2023-07-13T13:40:40;4.15;;;2.05;;
36061;SDS011;22123;52.412;20.970;2023-07-13T13:43:17;4.65;;;1.90;;
36061;SDS011;22123;52.412;20.970;2023-07-13T13:45:44;1.42;;;1.30;;
36061;SDS011;22123;52.412;20.970;2023-07-13T13:48:18;4.43;;;1.60;;
36061;SDS011;22123;52.412;20.970;2023-07-13T13:50:54;4.07;;;1.60;;
36061;SDS011;22123;52.412;20.970;2023-07-13T13:53:20;1.85;;;1.58;;
36061;SDS011;22123;52.412;20.970;2023-07-13T13:55:46;2.97;;;1.55;;
36061;SDS011;22123;52.412;20.970;2023-07-13T13:58:12;1.38;;;1.25;;
36061;SDS011;22123;52.412;20.970;2023-07-13T14:03:03;1.38;;;1.10;;
36061;SDS011;22123;52.412;20.970;2023-07-13T14:05:30;2.78;;;1.60;;
36061;SDS011;22123;52.412;20.970;2023-07-13T14:07:56;1.98;;;1.30;;
36061;SDS011;22123;52.412;20.970;2023-07-13T14:10:22;1.55;;;1.15;;
36061;SDS011;22123;52.412;20.970;2023-07-13T14:12:50;1.83;;;1.35;;
36061;SDS011;22123;52.412;20.970;2023-07-13T14:15:28;1.02;;;0.90;;
36061;SDS011;22123;52.412;20.970;2023-07-13T14:17:54;1.35;;;1.25;;
36061;SDS011;22123;52.412;20.970;2023-07-13T14:20:21;3.67;;;2.10;;
36061;SDS011;22123;52.412;20.970;2023-07-13T14:22:48;1.52;;;0.95;;
36061;SDS011;22123;52.412;20.970;2023-07-13T14:25:14;3.03;;;1.85;;
36061;SDS011;22123;52.412;20.970;2023-07-13T14:27:42;1.90;;;1.50;;
36061;SDS011;22123;52.412;20.970;2023-07-13T14:30:12;1.85;;;1.20;;
36061;SDS011;22123;52.412;20.970;2023-07-13T14:32:42;2.20;;;1.73;;
36061;SDS011;22123;52.412;20.970;2023-07-13T14:35:11;4.18;;;1.42;;
36061;SDS011;22123;52.412;20.970;2023-07-13T14:37:39;1.23;;;1.13;;
36061;SDS011;22123;52.412;20.970;2023-07-13T14:40:12;1.77;;;1.40;;
36061;SDS011;22123;52.412;20.970;2023-07-13T14:42:42;1.65;;;1.15;;
36061;SDS011;22123;52.412;20.970;2023-07-13T14:45:15;1.95;;;1.15;;
36061;SDS011;22123;52.412;20.970;2023-07-13T14:47:43;2.53;;;1.50;;
36061;SDS011;22123;52.412;20.970;2023-07-13T14:50:15;4.88;;;1.50;;
36061;SDS011;22123;52.412;20.970;2023-07-13T14:52:44;3.45;;;1.30;;
36061;SDS011;22123;52.412;20.970;2023-07-13T14:55:14;2.50;;;1.35;;
36061;SDS011;22123;52.412;20.970;2023-07-13T14:57:41;1.20;;;1.10;;
36061;SDS011;22123;52.412;20.970;2023-07-13T15:00:17;2.15;;;1.20;;
36061;SDS011;22123;52.412;20.970;2023-07-13T15:02:46;0.90;;;0.90;;
36061;SDS011;22123;52.412;20.970;2023-07-13T15:05:16;1.80;;;1.38;;
36061;SDS011;22123;52.412;20.970;2023-07-13T15:07:44;2.38;;;2.17;;
36061;SDS011;22123;52.412;20.970;2023-07-13T15:12:59;1.40;;;1.17;;
36061;SDS011;22123;52.412;20.970;2023-07-13T15:15:48;2.45;;;1.60;;
36061;SDS011;22123;52.412;20.970;2023-07-13T15:18:18;1.50;;;1.40;;
36061;SDS011;22123;52.412;20.970;2023-07-13T15:20:49;1.50;;;0.98;;
36061;SDS011;22123;52.412;20.970;2023-07-13T15:23:16;2.63;;;1.52;;
36061;SDS011;22123;52.412;20.970;2023-07-13T15:25:43;1.90;;;1.48;;
36061;SDS011;22123;52.412;20.970;2023-07-13T15:28:10;1.35;;;1.13;;
36061;SDS011;22123;52.412;20.970;2023-07-13T15:30:38;1.80;;;1.35;;
36061;SDS011;22123;52.412;20.970;2023-07-13T15:33:21;3.42;;;1.95;;
36061;SDS011;22123;52.412;20.970;2023-07-13T15:35:51;2.58;;;1.50;;
36061;SDS011;22123;52.412;20.970;2023-07-13T15:38:18;2.75;;;1.30;;
36061;SDS011;22123;52.412;20.970;2023-07-13T15:40:49;1.52;;;1.33;;
36061;SDS011;22123;52.412;20.970;2023-07-13T15:43:16;4.10;;;1.50;;
36061;SDS011;22123;52.412;20.970;2023-07-13T15:45:44;2.38;;;1.77;;
36061;SDS011;22123;52.412;20.970;2023-07-13T15:48:22;1.80;;;1.00;;
36061;SDS011;22123;52.412;20.970;2023-07-13T15:50:50;2.00;;;1.90;;
36061;SDS011;22123;52.412;20.970;2023-07-13T15:53:25;3.47;;;1.67;;
36061;SDS011;22123;52.412;20.970;2023-07-13T15:55:55;4.20;;;1.30;;
36061;SDS011;22123;52.412;20.970;2023-07-13T15:58:22;2.00;;;1.77;;
36061;SDS011;22123;52.412;20.970;2023-07-13T16:00:48;2.92;;;1.92;;
36061;SDS011;22123;52.412;20.970;2023-07-13T16:03:14;3.75;;;1.48;;
36061;SDS011;22123;52.412;20.970;2023-07-13T16:05:43;1.95;;;1.55;;
36061;SDS011;22123;52.412;20.970;2023-07-13T16:08:16;2.65;;;1.42;;
36061;SDS011;22123;52.412;20.970;2023-07-13T16:10:49;3.92;;;1.85;;
36061;SDS011;22123;52.412;20.970;2023-07-13T16:13:15;4.55;;;1.85;;
36061;SDS011;22123;52.412;20.970;2023-07-13T16:15:42;3.28;;;1.70;;
36061;SDS011;22123;52.412;20.970;2023-07-13T16:18:08;2.72;;;2.08;;
36061;SDS011;22123;52.412;20.970;2023-07-13T16:20:34;3.72;;;1.42;;
36061;SDS011;22123;52.412;20.970;2023-07-13T16:23:00;4.18;;;2.10;;
36061;SDS011;22123;52.412;20.970;2023-07-13T16:25:26;3.33;;;1.40;;
36061;SDS011;22123;52.412;20.970;2023-07-13T16:27:53;3.00;;;1.55;;
36061;SDS011;22123;52.412;20.970;2023-07-13T16:30:21;3.05;;;1.90;;
36061;SDS011;22123;52.412;20.970;2023-07-13T16:32:48;3.67;;;1.80;;
36061;SDS011;22123;52.412;20.970;2023-07-13T16:35:17;2.22;;;1.30;;
36061;SDS011;22123;52.412;20.970;2023-07-13T16:40:22;2.78;;;1.63;;
36061;SDS011;22123;52.412;20.970;2023-07-13T16:42:53;3.47;;;1.77;;
36061;SDS011;22123;52.412;20.970;2023-07-13T16:45:21;2.40;;;1.58;;
36061;SDS011;22123;52.412;20.970;2023-07-13T16:47:47;2.22;;;1.98;;
36061;SDS011;22123;52.412;20.970;2023-07-13T16:50:14;2.08;;;1.48;;
36061;SDS011;22123;52.412;20.970;2023-07-13T16:52:42;3.22;;;2.22;;
36061;SDS011;22123;52.412;20.970;2023-07-13T16:55:10;2.15;;;1.80;;
36061;SDS011;22123;52.412;20.970;2023-07-13T16:57:37;3.75;;;2.05;;
36061;SDS011;22123;52.412;20.970;2023-07-13T17:00:20;5.13;;;1.92;;
36061;SDS011;22123;52.412;20.970;2023-07-13T17:03:01;2.33;;;1.83;;
36061;SDS011;22123;52.412;20.970;2023-07-13T17:05:43;2.88;;;2.40;;
36061;SDS011;22123;52.412;20.970;2023-07-13T17:08:24;2.50;;;1.73;;
36061;SDS011;22123;52.412;20.970;2023-07-13T17:10:53;2.13;;;1.92;;
36061;SDS011;22123;52.412;20.970;2023-07-13T17:13:20;3.03;;;2.03;;
36061;SDS011;22123;52.412;20.970;2023-07-13T17:15:47;2.38;;;2.00;;
36061;SDS011;22123;52.412;20.970;2023-07-13T17:18:14;3.70;;;1.17;;
36061;SDS011;22123;52.412;20.970;2023-07-13T17:20:41;1.73;;;1.27;;
36061;SDS011;22123;52.412;20.970;2023-07-13T17:23:16;2.90;;;2.55;;
36061;SDS011;22123;52.412;20.970;2023-07-13T17:25:46;3.63;;;2.50;;
36061;SDS011;22123;52.412;20.970;2023-07-13T17:28:13;4.07;;;2.10;;
36061;SDS011;22123;52.412;20.970;2023-07-13T17:30:41;2.83;;;1.90;;
36061;SDS011;22123;52.412;20.970;2023-07-13T17:33:25;3.28;;;1.88;;
36061;SDS011;22123;52.412;20.970;2023-07-13T17:36:04;1.73;;;1.45;;